sensor_id;sensor_type;location;lat;lon;timestamp;P1;durP1;ratioP1;P2;durP2;ratioP2
23222;SDS011;11780;13.904;100.620;2023-10-31T00:00:38;10.10;;;4.78;;
23222;SDS011;11780;13.904;100.620;2023-10-31T00:03:09;6.57;;;4.65;;
23222;SDS011;11780;13.904;100.620;2023-10-31T00:05:40;7.03;;;4.00;;
23222;SDS011;11780;13.904;100.620;2023-10-31T00:08:10;8.45;;;5.13;;
23222;SDS011;11780;13.904;100.620;2023-10-31T00:10:40;11.52;;;5.63;;
23222;SDS011;11780;13.904;100.620;2023-10-31T00:13:14;9.90;;;5.50;;
23222;SDS011;11780;13.904;100.620;2023-10-31T00:15:44;12.07;;;5.40;;
23222;SDS011;11780;13.904;100.620;2023-10-31T00:18:14;9.43;;;5.25;;
23222;SDS011;11780;13.904;100.620;2023-10-31T00:20:45;11.48;;;4.65;;
23222;SDS011;11780;13.904;100.620;2023-10-31T00:23:16;8.68;;;5.00;;
23222;SDS011;11780;13.904;100.620;2023-10-31T00:25:47;7.07;;;4.72;;
23222;SDS011;11780;13.904;100.620;2023-10-31T00:28:17;9.38;;;4.93;;
23222;SDS011;11780;13.904;100.620;2023-10-31T00:30:47;8.05;;;4.53;;
23222;SDS011;11780;13.904;100.620;2023-10-31T00:33:18;8.50;;;4.75;;
23222;SDS011;11780;13.904;100.620;2023-10-31T00:35:48;7.43;;;4.40;;
23222;SDS011;11780;13.904;100.620;2023-10-31T00:38:18;9.20;;;4.03;;
23222;SDS011;11780;13.904;100.620;2023-10-31T00:40:48;9.48;;;4.20;;
23222;SDS011;11780;13.904;100.620;2023-10-31T00:43:19;8.48;;;4.15;;
23222;SDS011;11780;13.904;100.620;2023-10-31T00:45:49;6.07;;;4.03;;
23222;SDS011;11780;13.904;100.620;2023-10-31T00:48:19;8.52;;;4.05;;
23222;SDS011;11780;13.904;100.620;2023-10-31T00:50:50;9.40;;;4.50;;
23222;SDS011;11780;13.904;100.620;2023-10-31T00:53:20;7.20;;;4.07;;
23222;SDS011;11780;13.904;100.620;2023-10-31T00:55:50;10.18;;;4.40;;
23222;SDS011;11780;13.904;100.620;2023-10-31T00:58:21;6.53;;;4.03;;
23222;SDS011;11780;13.904;100.620;2023-10-31T01:00:51;7.70;;;3.85;;
23222;SDS011;11780;13.904;100.620;2023-10-31T01:03:21;6.40;;;3.90;;
23222;SDS011;11780;13.904;100.620;2023-10-31T01:05:52;8.93;;;4.20;;
23222;SDS011;11780;13.904;100.620;2023-10-31T01:08:22;6.60;;;4.00;;
23222;SDS011;11780;13.904;100.620;2023-10-31T01:10:52;6.70;;;3.83;;
23222;SDS011;11780;13.904;100.620;2023-10-31T01:13:23;6.28;;;3.63;;
23222;SDS011;11780;13.904;100.620;2023-10-31T01:15:53;5.93;;;3.63;;
23222;SDS011;11780;13.904;100.620;2023-10-31T01:18:24;9.07;;;3.63;;
23222;SDS011;11780;13.904;100.620;2023-10-31T01:20:55;10.63;;;4.00;;
23222;SDS011;11780;13.904;100.620;2023-10-31T01:23:25;7.53;;;4.00;;
23222;SDS011;11780;13.904;100.620;2023-10-31T01:25:55;6.97;;;3.80;;
23222;SDS011;11780;13.904;100.620;2023-10-31T01:28:26;6.13;;;3.90;;
23222;SDS011;11780;13.904;100.620;2023-10-31T01:30:56;7.88;;;4.15;;
23222;SDS011;11780;13.904;100.620;2023-10-31T01:33:26;6.50;;;4.10;;
23222;SDS011;11780;13.904;100.620;2023-10-31T01:35:57;6.70;;;3.60;;
23222;SDS011;11780;13.904;100.620;2023-10-31T01:38:27;5.78;;;3.63;;
23222;SDS011;11780;13.904;100.620;2023-10-31T01:40:57;5.80;;;4.13;;
23222;SDS011;11780;13.904;100.620;2023-10-31T01:43:34;8.25;;;4.18;;
23222;SDS011;11780;13.904;100.620;2023-10-31T01:46:08;6.43;;;4.20;;
23222;SDS011;11780;13.904;100.620;2023-10-31T01:48:40;5.40;;;3.85;;
23222;SDS011;11780;13.904;100.620;2023-10-31T01:51:12;7.18;;;3.97;;
23222;SDS011;11780;13.904;100.620;2023-10-31T01:53:43;7.13;;;3.78;;
23222;SDS011;11780;13.904;100.620;2023-10-31T01:56:13;4.80;;;3.10;;
23222;SDS011;11780;13.904;100.620;2023-10-31T01:58:44;5.93;;;3.60;;
23222;SDS011;11780;13.904;100.620;2023-10-31T02:01:16;7.90;;;3.90;;
23222;SDS011;11780;13.904;100.620;2023-10-31T02:03:46;4.50;;;3.58;;
23222;SDS011;11780;13.904;100.620;2023-10-31T02:06:17;6.95;;;3.80;;
23222;SDS011;11780;13.904;100.620;2023-10-31T02:08:48;5.70;;;3.90;;
23222;SDS011;11780;13.904;100.620;2023-10-31T02:11:18;6.97;;;3.97;;
23222;SDS011;11780;13.904;100.620;2023-10-31T02:13:48;6.28;;;3.65;;
23222;SDS011;11780;13.904;100.620;2023-10-31T02:16:18;6.95;;;4.00;;
23222;SDS011;11780;13.904;100.620;2023-10-31T02:18:48;5.70;;;4.00;;
23222;SDS011;11780;13.904;100.620;2023-10-31T02:21:19;5.78;;;3.70;;
23222;SDS011;11780;13.904;100.620;2023-10-31T02:24:01;4.72;;;4.00;;
23222;SDS011;11780;13.904;100.620;2023-10-31T02:26:33;4.28;;;3.60;;
23222;SDS011;11780;13.904;100.620;2023-10-31T02:29:04;5.18;;;3.70;;
23222;SDS011;11780;13.904;100.620;2023-10-31T02:31:34;5.20;;;3.55;;
23222;SDS011;11780;13.904;100.620;2023-10-31T02:34:05;6.85;;;3.70;;
23222;SDS011;11780;13.904;100.620;2023-10-31T02:36:35;4.75;;;3.60;;
23222;SDS011;11780;13.904;100.620;2023-10-31T02:39:05;6.78;;;3.67;;
23222;SDS011;11780;13.904;100.620;2023-10-31T02:41:35;6.50;;;3.95;;
23222;SDS011;11780;13.904;100.620;2023-10-31T02:44:07;6.72;;;3.50;;
23222;SDS011;11780;13.904;100.620;2023-10-31T02:46:38;4.82;;;3.25;;
23222;SDS011;11780;13.904;100.620;2023-10-31T02:49:08;6.65;;;4.60;;
23222;SDS011;11780;13.904;100.620;2023-10-31T02:51:39;7.70;;;3.80;;
23222;SDS011;11780;13.904;100.620;2023-10-31T02:54:09;5.88;;;3.67;;
23222;SDS011;11780;13.904;100.620;2023-10-31T02:56:39;6.78;;;3.78;;
23222;SDS011;11780;13.904;100.620;2023-10-31T02:59:09;7.65;;;4.07;;
23222;SDS011;11780;13.904;100.620;2023-10-31T03:01:40;6.63;;;3.80;;
23222;SDS011;11780;13.904;100.620;2023-10-31T03:04:10;5.68;;;3.80;;
23222;SDS011;11780;13.904;100.620;2023-10-31T03:06:40;6.30;;;4.13;;
23222;SDS011;11780;13.904;100.620;2023-10-31T03:09:11;4.80;;;3.57;;
23222;SDS011;11780;13.904;100.620;2023-10-31T03:11:41;7.80;;;3.88;;
23222;SDS011;11780;13.904;100.620;2023-10-31T03:14:11;7.45;;;4.05;;
23222;SDS011;11780;13.904;100.620;2023-10-31T03:16:41;7.03;;;3.67;;
23222;SDS011;11780;13.904;100.620;2023-10-31T03:19:12;5.18;;;3.60;;
23222;SDS011;11780;13.904;100.620;2023-10-31T03:21:42;6.45;;;4.00;;
23222;SDS011;11780;13.904;100.620;2023-10-31T03:24:12;4.95;;;3.63;;
23222;SDS011;11780;13.904;100.620;2023-10-31T03:26:43;5.05;;;3.90;;
23222;SDS011;11780;13.904;100.620;2023-10-31T03:29:13;4.95;;;3.60;;
23222;SDS011;11780;13.904;100.620;2023-10-31T03:31:43;7.47;;;3.90;;
23222;SDS011;11780;13.904;100.620;2023-10-31T03:34:13;6.25;;;3.65;;
23222;SDS011;11780;13.904;100.620;2023-10-31T03:36:43;4.38;;;3.90;;
23222;SDS011;11780;13.904;100.620;2023-10-31T03:39:14;8.65;;;4.28;;
23222;SDS011;11780;13.904;100.620;2023-10-31T03:41:44;5.75;;;3.00;;
23222;SDS011;11780;13.904;100.620;2023-10-31T03:44:15;3.67;;;3.22;;
23222;SDS011;11780;13.904;100.620;2023-10-31T03:46:46;5.60;;;3.75;;
23222;SDS011;11780;13.904;100.620;2023-10-31T03:51:47;4.60;;;3.33;;
23222;SDS011;11780;13.904;100.620;2023-10-31T03:54:17;8.00;;;3.47;;
23222;SDS011;11780;13.904;100.620;2023-10-31T03:56:47;6.43;;;3.35;;
23222;SDS011;11780;13.904;100.620;2023-10-31T03:59:18;5.10;;;3.47;;
23222;SDS011;11780;13.904;100.620;2023-10-31T04:01:48;4.93;;;3.05;;
23222;SDS011;11780;13.904;100.620;2023-10-31T04:04:18;6.50;;;3.20;;
23222;SDS011;11780;13.904;100.620;2023-10-31T04:06:48;6.53;;;3.47;;
23222;SDS011;11780;13.904;100.620;2023-10-31T04:09:18;7.18;;;3.40;;
23222;SDS011;11780;13.904;100.620;2023-10-31T04:11:49;5.57;;;3.70;;
23222;SDS011;11780;13.904;100.620;2023-10-31T04:14:19;4.65;;;3.10;;
23222;SDS011;11780;13.904;100.620;2023-10-31T04:16:52;6.22;;;3.35;;
23222;SDS011;11780;13.904;100.620;2023-10-31T04:19:22;5.97;;;3.40;;
23222;SDS011;11780;13.904;100.620;2023-10-31T04:21:53;6.63;;;3.33;;
23222;SDS011;11780;13.904;100.620;2023-10-31T04:24:24;7.07;;;3.92;;
23222;SDS011;11780;13.904;100.620;2023-10-31T04:26:54;5.57;;;3.40;;
23222;SDS011;11780;13.904;100.620;2023-10-31T04:29:24;5.93;;;3.80;;
23222;SDS011;11780;13.904;100.620;2023-10-31T04:31:54;3.70;;;3.13;;
23222;SDS011;11780;13.904;100.620;2023-10-31T04:34:24;4.28;;;3.88;;
23222;SDS011;11780;13.904;100.620;2023-10-31T04:36:55;5.40;;;3.60;;
23222;SDS011;11780;13.904;100.620;2023-10-31T04:39:25;5.75;;;3.92;;
23222;SDS011;11780;13.904;100.620;2023-10-31T04:41:55;6.30;;;3.45;;
23222;SDS011;11780;13.904;100.620;2023-10-31T04:44:25;5.38;;;3.53;;
23222;SDS011;11780;13.904;100.620;2023-10-31T04:46:55;5.28;;;3.33;;
23222;SDS011;11780;13.904;100.620;2023-10-31T04:49:25;5.63;;;3.25;;
23222;SDS011;11780;13.904;100.620;2023-10-31T04:51:56;6.85;;;3.40;;
23222;SDS011;11780;13.904;100.620;2023-10-31T04:54:26;3.70;;;3.13;;
23222;SDS011;11780;13.904;100.620;2023-10-31T04:56:56;6.30;;;3.50;;
23222;SDS011;11780;13.904;100.620;2023-10-31T04:59:26;4.40;;;3.08;;
23222;SDS011;11780;13.904;100.620;2023-10-31T05:01:57;5.18;;;3.70;;
23222;SDS011;11780;13.904;100.620;2023-10-31T05:06:58;3.65;;;3.33;;
23222;SDS011;11780;13.904;100.620;2023-10-31T05:09:28;4.40;;;2.95;;
23222;SDS011;11780;13.904;100.620;2023-10-31T05:11:58;3.33;;;3.00;;
23222;SDS011;11780;13.904;100.620;2023-10-31T05:14:29;3.25;;;2.80;;
23222;SDS011;11780;13.904;100.620;2023-10-31T05:16:59;5.18;;;3.05;;
23222;SDS011;11780;13.904;100.620;2023-10-31T05:19:30;5.30;;;3.00;;
23222;SDS011;11780;13.904;100.620;2023-10-31T05:22:00;5.00;;;2.72;;
23222;SDS011;11780;13.904;100.620;2023-10-31T05:24:30;3.72;;;2.95;;
23222;SDS011;11780;13.904;100.620;2023-10-31T05:27:01;4.13;;;3.00;;
23222;SDS011;11780;13.904;100.620;2023-10-31T05:32:03;4.05;;;3.03;;
23222;SDS011;11780;13.904;100.620;2023-10-31T05:34:33;5.30;;;3.00;;
23222;SDS011;11780;13.904;100.620;2023-10-31T05:37:03;5.70;;;3.17;;
23222;SDS011;11780;13.904;100.620;2023-10-31T05:39:35;3.80;;;3.08;;
23222;SDS011;11780;13.904;100.620;2023-10-31T05:42:06;6.75;;;3.20;;
23222;SDS011;11780;13.904;100.620;2023-10-31T05:44:36;4.50;;;3.20;;
23222;SDS011;11780;13.904;100.620;2023-10-31T05:47:06;5.72;;;3.25;;
23222;SDS011;11780;13.904;100.620;2023-10-31T05:49:36;5.03;;;3.10;;
23222;SDS011;11780;13.904;100.620;2023-10-31T05:52:07;3.30;;;3.00;;
23222;SDS011;11780;13.904;100.620;2023-10-31T05:54:37;5.35;;;3.47;;
23222;SDS011;11780;13.904;100.620;2023-10-31T05:57:07;3.30;;;2.80;;
23222;SDS011;11780;13.904;100.620;2023-10-31T05:59:37;3.42;;;3.08;;
23222;SDS011;11780;13.904;100.620;2023-10-31T06:02:07;3.13;;;2.80;;
23222;SDS011;11780;13.904;100.620;2023-10-31T06:04:37;3.50;;;3.20;;
23222;SDS011;11780;13.904;100.620;2023-10-31T06:07:08;4.55;;;3.13;;
23222;SDS011;11780;13.904;100.620;2023-10-31T06:09:39;9.15;;;3.17;;
23222;SDS011;11780;13.904;100.620;2023-10-31T06:12:09;3.35;;;3.15;;
23222;SDS011;11780;13.904;100.620;2023-10-31T06:14:40;5.53;;;2.90;;
23222;SDS011;11780;13.904;100.620;2023-10-31T06:19:42;4.17;;;3.33;;
23222;SDS011;11780;13.904;100.620;2023-10-31T06:22:14;6.07;;;3.10;;
23222;SDS011;11780;13.904;100.620;2023-10-31T06:24:45;3.90;;;3.28;;
23222;SDS011;11780;13.904;100.620;2023-10-31T06:27:15;3.88;;;3.10;;
23222;SDS011;11780;13.904;100.620;2023-10-31T06:29:45;6.03;;;3.22;;
23222;SDS011;11780;13.904;100.620;2023-10-31T06:32:35;4.57;;;3.28;;
23222;SDS011;11780;13.904;100.620;2023-10-31T06:35:06;4.68;;;2.95;;
23222;SDS011;11780;13.904;100.620;2023-10-31T06:37:37;6.28;;;3.17;;
23222;SDS011;11780;13.904;100.620;2023-10-31T06:40:07;3.80;;;2.97;;
23222;SDS011;11780;13.904;100.620;2023-10-31T06:42:38;4.07;;;3.30;;
23222;SDS011;11780;13.904;100.620;2023-10-31T06:45:08;4.45;;;3.05;;
23222;SDS011;11780;13.904;100.620;2023-10-31T06:47:38;4.30;;;3.07;;
23222;SDS011;11780;13.904;100.620;2023-10-31T06:50:09;3.20;;;2.90;;
23222;SDS011;11780;13.904;100.620;2023-10-31T06:52:41;10.40;;;3.63;;
23222;SDS011;11780;13.904;100.620;2023-10-31T06:55:11;4.35;;;3.38;;
23222;SDS011;11780;13.904;100.620;2023-10-31T06:57:42;4.00;;;3.13;;
23222;SDS011;11780;13.904;100.620;2023-10-31T07:00:13;3.70;;;3.13;;
23222;SDS011;11780;13.904;100.620;2023-10-31T07:02:43;3.92;;;2.85;;
23222;SDS011;11780;13.904;100.620;2023-10-31T07:05:13;3.33;;;3.03;;
23222;SDS011;11780;13.904;100.620;2023-10-31T07:07:45;5.72;;;3.28;;
23222;SDS011;11780;13.904;100.620;2023-10-31T07:10:15;4.50;;;3.33;;
23222;SDS011;11780;13.904;100.620;2023-10-31T07:12:46;3.45;;;2.88;;
23222;SDS011;11780;13.904;100.620;2023-10-31T07:15:16;3.88;;;3.40;;
23222;SDS011;11780;13.904;100.620;2023-10-31T07:17:46;3.30;;;2.80;;
23222;SDS011;11780;13.904;100.620;2023-10-31T07:20:17;7.63;;;3.38;;
23222;SDS011;11780;13.904;100.620;2023-10-31T07:22:47;4.18;;;3.20;;
23222;SDS011;11780;13.904;100.620;2023-10-31T07:25:17;4.95;;;3.20;;
23222;SDS011;11780;13.904;100.620;2023-10-31T07:27:48;3.92;;;3.53;;
23222;SDS011;11780;13.904;100.620;2023-10-31T07:30:18;4.85;;;3.50;;
23222;SDS011;11780;13.904;100.620;2023-10-31T07:32:48;4.53;;;3.07;;
23222;SDS011;11780;13.904;100.620;2023-10-31T07:35:19;6.63;;;3.33;;
23222;SDS011;11780;13.904;100.620;2023-10-31T07:37:49;7.53;;;3.40;;
23222;SDS011;11780;13.904;100.620;2023-10-31T07:40:19;3.33;;;3.05;;
23222;SDS011;11780;13.904;100.620;2023-10-31T07:42:50;5.53;;;3.78;;
23222;SDS011;11780;13.904;100.620;2023-10-31T07:45:20;4.13;;;3.30;;
23222;SDS011;11780;13.904;100.620;2023-10-31T07:47:50;3.53;;;3.22;;
23222;SDS011;11780;13.904;100.620;2023-10-31T07:50:20;5.13;;;3.55;;
23222;SDS011;11780;13.904;100.620;2023-10-31T07:52:50;3.60;;;3.30;;
23222;SDS011;11780;13.904;100.620;2023-10-31T07:55:22;4.47;;;3.28;;
23222;SDS011;11780;13.904;100.620;2023-10-31T07:57:52;3.90;;;3.65;;
23222;SDS011;11780;13.904;100.620;2023-10-31T08:00:24;4.63;;;4.00;;
23222;SDS011;11780;13.904;100.620;2023-10-31T08:02:54;3.70;;;3.40;;
23222;SDS011;11780;13.904;100.620;2023-10-31T08:05:24;4.75;;;3.72;;
23222;SDS011;11780;13.904;100.620;2023-10-31T08:07:55;7.50;;;3.83;;
23222;SDS011;11780;13.904;100.620;2023-10-31T08:10:25;4.55;;;3.80;;
23222;SDS011;11780;13.904;100.620;2023-10-31T08:12:55;4.05;;;3.53;;
23222;SDS011;11780;13.904;100.620;2023-10-31T08:15:25;4.10;;;3.47;;
23222;SDS011;11780;13.904;100.620;2023-10-31T08:17:56;5.10;;;3.60;;
23222;SDS011;11780;13.904;100.620;2023-10-31T08:20:26;6.10;;;4.07;;
23222;SDS011;11780;13.904;100.620;2023-10-31T08:23:02;4.65;;;4.18;;
23222;SDS011;11780;13.904;100.620;2023-10-31T08:25:32;4.60;;;3.63;;
23222;SDS011;11780;13.904;100.620;2023-10-31T08:28:02;4.93;;;3.85;;
23222;SDS011;11780;13.904;100.620;2023-10-31T08:30:32;6.30;;;3.95;;
23222;SDS011;11780;13.904;100.620;2023-10-31T08:33:03;4.18;;;3.78;;
23222;SDS011;11780;13.904;100.620;2023-10-31T08:35:37;4.40;;;3.70;;
23222;SDS011;11780;13.904;100.620;2023-10-31T08:38:07;4.20;;;3.83;;
23222;SDS011;11780;13.904;100.620;2023-10-31T08:40:50;6.35;;;4.50;;
23222;SDS011;11780;13.904;100.620;2023-10-31T08:43:20;4.95;;;3.88;;
23222;SDS011;11780;13.904;100.620;2023-10-31T08:45:50;5.30;;;4.80;;
23222;SDS011;11780;13.904;100.620;2023-10-31T08:48:20;5.22;;;4.72;;
23222;SDS011;11780;13.904;100.620;2023-10-31T08:50:51;4.77;;;4.10;;
23222;SDS011;11780;13.904;100.620;2023-10-31T08:53:21;5.28;;;4.43;;
23222;SDS011;11780;13.904;100.620;2023-10-31T08:55:51;5.73;;;4.20;;
23222;SDS011;11780;13.904;100.620;2023-10-31T08:58:22;4.88;;;4.28;;
23222;SDS011;11780;13.904;100.620;2023-10-31T09:00:52;4.38;;;3.97;;
23222;SDS011;11780;13.904;100.620;2023-10-31T09:03:22;4.88;;;4.38;;
23222;SDS011;11780;13.904;100.620;2023-10-31T09:05:52;5.40;;;4.20;;
23222;SDS011;11780;13.904;100.620;2023-10-31T09:08:23;4.82;;;4.32;;
23222;SDS011;11780;13.904;100.620;2023-10-31T09:10:53;7.43;;;4.60;;
23222;SDS011;11780;13.904;100.620;2023-10-31T09:13:23;5.50;;;4.30;;
23222;SDS011;11780;13.904;100.620;2023-10-31T09:15:53;5.53;;;4.10;;
23222;SDS011;11780;13.904;100.620;2023-10-31T09:18:24;4.80;;;4.40;;
23222;SDS011;11780;13.904;100.620;2023-10-31T09:20:54;6.25;;;4.38;;
23222;SDS011;11780;13.904;100.620;2023-10-31T09:23:24;4.78;;;4.35;;
23222;SDS011;11780;13.904;100.620;2023-10-31T09:25:54;4.97;;;4.28;;
23222;SDS011;11780;13.904;100.620;2023-10-31T09:28:25;5.85;;;4.40;;
23222;SDS011;11780;13.904;100.620;2023-10-31T09:30:56;5.10;;;4.00;;
23222;SDS011;11780;13.904;100.620;2023-10-31T09:33:26;4.70;;;4.20;;
23222;SDS011;11780;13.904;100.620;2023-10-31T09:35:56;4.30;;;3.90;;
23222;SDS011;11780;13.904;100.620;2023-10-31T09:38:27;4.20;;;3.80;;
23222;SDS011;11780;13.904;100.620;2023-10-31T09:40:57;5.47;;;4.25;;
23222;SDS011;11780;13.904;100.620;2023-10-31T09:43:27;6.75;;;4.43;;
23222;SDS011;11780;13.904;100.620;2023-10-31T09:45:58;5.05;;;4.55;;
23222;SDS011;11780;13.904;100.620;2023-10-31T09:48:30;4.50;;;3.97;;
23222;SDS011;11780;13.904;100.620;2023-10-31T09:51:02;5.80;;;4.63;;
23222;SDS011;11780;13.904;100.620;2023-10-31T09:53:34;6.03;;;4.15;;
23222;SDS011;11780;13.904;100.620;2023-10-31T09:56:10;5.35;;;4.40;;
23222;SDS011;11780;13.904;100.620;2023-10-31T09:58:41;4.50;;;4.10;;
23222;SDS011;11780;13.904;100.620;2023-10-31T10:01:11;5.32;;;4.82;;
23222;SDS011;11780;13.904;100.620;2023-10-31T10:03:41;4.70;;;4.20;;
23222;SDS011;11780;13.904;100.620;2023-10-31T10:08:42;5.05;;;4.20;;
23222;SDS011;11780;13.904;100.620;2023-10-31T10:11:13;5.55;;;4.82;;
23222;SDS011;11780;13.904;100.620;2023-10-31T10:16:27;5.00;;;4.15;;
23222;SDS011;11780;13.904;100.620;2023-10-31T10:19:16;5.07;;;4.38;;
23222;SDS011;11780;13.904;100.620;2023-10-31T10:21:52;5.60;;;4.80;;
23222;SDS011;11780;13.904;100.620;2023-10-31T10:24:23;5.20;;;3.58;;
23222;SDS011;11780;13.904;100.620;2023-10-31T10:29:24;7.53;;;5.30;;
23222;SDS011;11780;13.904;100.620;2023-10-31T10:31:55;4.45;;;4.05;;
23222;SDS011;11780;13.904;100.620;2023-10-31T10:34:26;4.97;;;4.38;;
23222;SDS011;11780;13.904;100.620;2023-10-31T10:36:57;5.32;;;4.38;;
23222;SDS011;11780;13.904;100.620;2023-10-31T10:42:00;4.40;;;4.00;;
23222;SDS011;11780;13.904;100.620;2023-10-31T10:44:34;4.93;;;4.38;;
23222;SDS011;11780;13.904;100.620;2023-10-31T10:47:05;5.75;;;4.85;;
23222;SDS011;11780;13.904;100.620;2023-10-31T10:52:17;5.75;;;4.68;;
23222;SDS011;11780;13.904;100.620;2023-10-31T10:55:19;6.10;;;4.78;;
23222;SDS011;11780;13.904;100.620;2023-10-31T10:58:08;5.63;;;4.32;;
23222;SDS011;11780;13.904;100.620;2023-10-31T11:00:43;4.97;;;4.45;;
23222;SDS011;11780;13.904;100.620;2023-10-31T11:03:14;5.45;;;4.13;;
23222;SDS011;11780;13.904;100.620;2023-10-31T11:05:49;4.50;;;4.07;;
23222;SDS011;11780;13.904;100.620;2023-10-31T11:08:20;6.50;;;4.55;;
23222;SDS011;11780;13.904;100.620;2023-10-31T11:10:53;6.47;;;4.80;;
23222;SDS011;11780;13.904;100.620;2023-10-31T11:13:25;4.40;;;4.00;;
23222;SDS011;11780;13.904;100.620;2023-10-31T11:15:56;4.23;;;3.83;;
23222;SDS011;11780;13.904;100.620;2023-10-31T11:18:31;5.72;;;4.43;;
23222;SDS011;11780;13.904;100.620;2023-10-31T11:21:02;6.27;;;4.90;;
23222;SDS011;11780;13.904;100.620;2023-10-31T14:32:35;9.88;;;7.93;;
23222;SDS011;11780;13.904;100.620;2023-10-31T14:35:05;11.32;;;7.85;;
23222;SDS011;11780;13.904;100.620;2023-10-31T14:37:36;11.23;;;7.50;;
23222;SDS011;11780;13.904;100.620;2023-10-31T14:40:07;10.98;;;7.80;;
23222;SDS011;11780;13.904;100.620;2023-10-31T14:42:37;10.95;;;8.32;;
23222;SDS011;11780;13.904;100.620;2023-10-31T14:45:08;11.02;;;7.90;;
23222;SDS011;11780;13.904;100.620;2023-10-31T14:47:38;10.73;;;8.07;;
23222;SDS011;11780;13.904;100.620;2023-10-31T14:50:09;12.10;;;7.85;;
23222;SDS011;11780;13.904;100.620;2023-10-31T14:52:39;16.58;;;8.27;;
23222;SDS011;11780;13.904;100.620;2023-10-31T14:55:10;8.53;;;7.63;;
23222;SDS011;11780;13.904;100.620;2023-10-31T14:57:41;11.63;;;8.85;;
23222;SDS011;11780;13.904;100.620;2023-10-31T15:00:11;13.23;;;9.70;;
23222;SDS011;11780;13.904;100.620;2023-10-31T15:02:43;10.25;;;8.57;;
23222;SDS011;11780;13.904;100.620;2023-10-31T15:05:13;11.25;;;9.48;;
23222;SDS011;11780;13.904;100.620;2023-10-31T15:07:43;13.98;;;8.82;;
23222;SDS011;11780;13.904;100.620;2023-10-31T15:10:21;13.15;;;7.88;;
23222;SDS011;11780;13.904;100.620;2023-10-31T15:12:52;11.87;;;8.87;;
23222;SDS011;11780;13.904;100.620;2023-10-31T15:15:22;15.32;;;8.88;;
23222;SDS011;11780;13.904;100.620;2023-10-31T15:17:52;20.02;;;9.38;;
23222;SDS011;11780;13.904;100.620;2023-10-31T15:20:22;13.63;;;8.65;;
23222;SDS011;11780;13.904;100.620;2023-10-31T15:22:53;16.20;;;8.98;;
23222;SDS011;11780;13.904;100.620;2023-10-31T15:25:23;11.75;;;8.82;;
23222;SDS011;11780;13.904;100.620;2023-10-31T15:27:53;13.55;;;9.02;;
23222;SDS011;11780;13.904;100.620;2023-10-31T15:30:24;10.93;;;8.90;;
23222;SDS011;11780;13.904;100.620;2023-10-31T15:32:54;13.25;;;7.90;;
23222;SDS011;11780;13.904;100.620;2023-10-31T15:35:24;9.40;;;7.57;;
23222;SDS011;11780;13.904;100.620;2023-10-31T15:37:54;15.52;;;8.07;;
23222;SDS011;11780;13.904;100.620;2023-10-31T15:40:28;12.18;;;8.80;;
23222;SDS011;11780;13.904;100.620;2023-10-31T15:42:58;9.67;;;8.30;;
23222;SDS011;11780;13.904;100.620;2023-10-31T15:45:29;13.43;;;9.30;;
23222;SDS011;11780;13.904;100.620;2023-10-31T15:48:05;11.52;;;9.02;;
23222;SDS011;11780;13.904;100.620;2023-10-31T15:50:42;12.05;;;8.82;;
23222;SDS011;11780;13.904;100.620;2023-10-31T15:53:22;11.65;;;8.98;;
23222;SDS011;11780;13.904;100.620;2023-10-31T15:55:55;15.73;;;9.57;;
23222;SDS011;11780;13.904;100.620;2023-10-31T15:58:48;12.55;;;9.20;;
23222;SDS011;11780;13.904;100.620;2023-10-31T16:01:19;12.50;;;9.33;;
23222;SDS011;11780;13.904;100.620;2023-10-31T16:03:54;16.08;;;10.43;;
23222;SDS011;11780;13.904;100.620;2023-10-31T16:06:33;18.70;;;10.13;;
23222;SDS011;11780;13.904;100.620;2023-10-31T16:09:05;15.27;;;10.18;;
23222;SDS011;11780;13.904;100.620;2023-10-31T16:11:35;13.27;;;10.15;;
23222;SDS011;11780;13.904;100.620;2023-10-31T16:14:06;13.35;;;9.30;;
23222;SDS011;11780;13.904;100.620;2023-10-31T16:16:40;13.70;;;9.40;;
23222;SDS011;11780;13.904;100.620;2023-10-31T16:19:12;11.65;;;9.15;;
23222;SDS011;11780;13.904;100.620;2023-10-31T16:21:43;15.10;;;9.97;;
23222;SDS011;11780;13.904;100.620;2023-10-31T16:24:16;12.85;;;8.48;;
23222;SDS011;11780;13.904;100.620;2023-10-31T16:26:48;14.70;;;9.63;;
23222;SDS011;11780;13.904;100.620;2023-10-31T16:29:21;12.77;;;9.63;;
23222;SDS011;11780;13.904;100.620;2023-10-31T16:31:54;13.55;;;9.70;;
23222;SDS011;11780;13.904;100.620;2023-10-31T16:34:25;13.67;;;9.23;;
23222;SDS011;11780;13.904;100.620;2023-10-31T16:36:55;15.17;;;9.37;;
23222;SDS011;11780;13.904;100.620;2023-10-31T16:39:27;13.57;;;9.23;;
23222;SDS011;11780;13.904;100.620;2023-10-31T16:41:58;15.23;;;9.10;;
23222;SDS011;11780;13.904;100.620;2023-10-31T16:44:28;11.70;;;8.48;;
23222;SDS011;11780;13.904;100.620;2023-10-31T16:46:59;12.18;;;9.13;;
23222;SDS011;11780;13.904;100.620;2023-10-31T16:49:29;11.90;;;9.15;;
23222;SDS011;11780;13.904;100.620;2023-10-31T16:51:59;12.98;;;8.95;;
23222;SDS011;11780;13.904;100.620;2023-10-31T16:54:30;13.07;;;8.93;;
23222;SDS011;11780;13.904;100.620;2023-10-31T16:57:00;14.07;;;8.95;;
23222;SDS011;11780;13.904;100.620;2023-10-31T16:59:30;13.70;;;9.00;;
23222;SDS011;11780;13.904;100.620;2023-10-31T17:02:01;12.60;;;9.07;;
23222;SDS011;11780;13.904;100.620;2023-10-31T17:04:32;12.27;;;8.35;;
23222;SDS011;11780;13.904;100.620;2023-10-31T17:07:04;11.23;;;8.95;;
23222;SDS011;11780;13.904;100.620;2023-10-31T17:09:34;12.95;;;8.82;;
23222;SDS011;11780;13.904;100.620;2023-10-31T17:12:04;12.50;;;8.80;;
23222;SDS011;11780;13.904;100.620;2023-10-31T17:14:35;11.07;;;8.43;;
23222;SDS011;11780;13.904;100.620;2023-10-31T17:17:05;10.53;;;8.50;;
23222;SDS011;11780;13.904;100.620;2023-10-31T17:19:35;11.80;;;8.45;;
23222;SDS011;11780;13.904;100.620;2023-10-31T17:22:06;13.07;;;8.40;;
23222;SDS011;11780;13.904;100.620;2023-10-31T17:24:37;9.27;;;8.32;;
23222;SDS011;11780;13.904;100.620;2023-10-31T17:27:07;12.27;;;7.72;;
23222;SDS011;11780;13.904;100.620;2023-10-31T17:29:37;12.25;;;7.80;;
23222;SDS011;11780;13.904;100.620;2023-10-31T17:32:07;10.13;;;7.85;;
23222;SDS011;11780;13.904;100.620;2023-10-31T17:34:48;13.40;;;7.97;;
23222;SDS011;11780;13.904;100.620;2023-10-31T17:37:18;11.48;;;8.25;;
23222;SDS011;11780;13.904;100.620;2023-10-31T17:39:48;13.23;;;7.65;;
23222;SDS011;11780;13.904;100.620;2023-10-31T17:42:19;13.15;;;8.30;;
23222;SDS011;11780;13.904;100.620;2023-10-31T17:44:51;10.00;;;8.52;;
23222;SDS011;11780;13.904;100.620;2023-10-31T17:47:21;10.98;;;7.40;;
23222;SDS011;11780;13.904;100.620;2023-10-31T17:49:51;11.10;;;7.82;;
23222;SDS011;11780;13.904;100.620;2023-10-31T17:52:22;8.43;;;7.53;;
23222;SDS011;11780;13.904;100.620;2023-10-31T17:57:23;12.98;;;7.28;;
23222;SDS011;11780;13.904;100.620;2023-10-31T17:59:53;8.38;;;7.53;;
23222;SDS011;11780;13.904;100.620;2023-10-31T18:02:23;9.45;;;7.68;;
23222;SDS011;11780;13.904;100.620;2023-10-31T18:04:54;8.13;;;7.10;;
23222;SDS011;11780;13.904;100.620;2023-10-31T18:07:24;10.70;;;7.47;;
23222;SDS011;11780;13.904;100.620;2023-10-31T18:09:54;9.30;;;7.32;;
23222;SDS011;11780;13.904;100.620;2023-10-31T18:12:26;8.65;;;7.43;;
23222;SDS011;11780;13.904;100.620;2023-10-31T18:14:56;10.10;;;7.22;;